createdAt,value
2018-04-07T00:00:34.221Z,82.60
2018-04-07T00:03:01.660Z,82.00
2018-04-07T00:05:29.882Z,83.50
2018-04-07T00:07:57.332Z,83.50
2018-04-07T00:10:24.772Z,84.00
2018-04-07T00:12:52.241Z,84.60
2018-04-07T00:15:19.679Z,85.10
2018-04-07T00:17:47.903Z,85.20
2018-04-07T00:20:15.330Z,85.10
2018-04-07T00:22:43.551Z,85.90
2018-04-07T00:25:11.026Z,85.90
2018-04-07T00:27:38.528Z,85.80
2018-04-07T00:30:05.920Z,86.50
2018-04-07T00:32:33.386Z,87.00
2018-04-07T00:35:00.829Z,87.10
2018-04-07T00:37:28.290Z,87.00
2018-04-07T00:39:55.741Z,86.80
2018-04-07T00:42:23.960Z,86.20
2018-04-07T00:44:51.425Z,86.80
2018-04-07T00:47:18.874Z,86.10
2018-04-07T00:49:46.324Z,85.70
2018-04-07T00:52:13.778Z,86.30
2018-04-07T00:54:41.993Z,86.70
2018-04-07T00:57:09.447Z,86.70
2018-04-07T00:59:36.908Z,87.10
2018-04-07T01:02:04.344Z,87.30
2018-04-07T01:04:32.550Z,87.20
2018-04-07T01:07:00.009Z,87.20
2018-04-07T01:09:27.452Z,87.30
2018-04-07T01:11:54.910Z,87.30
2018-04-07T01:14:23.121Z,86.30
2018-04-07T01:16:50.574Z,86.30
2018-04-07T01:19:18.013Z,86.30
2018-04-07T01:21:46.218Z,87.00
2018-04-07T01:24:13.672Z,86.90
2018-04-07T01:26:47.719Z,86.80
2018-04-07T01:29:15.154Z,86.80
2018-04-07T01:31:42.611Z,87.50
2018-04-07T01:34:10.056Z,87.60
2018-04-07T01:36:38.280Z,88.00
2018-04-07T01:39:05.742Z,88.00
2018-04-07T01:41:33.182Z,87.80
2018-04-07T01:44:00.743Z,86.80
2018-04-07T01:46:28.165Z,86.70
2018-04-07T01:48:56.402Z,86.30
2018-04-07T01:51:23.850Z,86.30
2018-04-07T01:53:51.309Z,86.50
2018-04-07T01:56:18.754Z,86.40
2018-04-07T01:58:46.212Z,87.20
2018-04-07T02:01:13.675Z,87.60
2018-04-07T02:03:41.110Z,88.10
2018-04-07T02:06:09.310Z,87.50
2018-04-07T02:08:36.757Z,87.50
2018-04-07T02:11:04.198Z,86.60
2018-04-07T02:13:31.675Z,88.00
2018-04-07T02:15:59.870Z,89.40
2018-04-07T02:18:27.324Z,89.40
2018-04-07T02:20:54.754Z,89.50
2018-04-07T02:23:22.204Z,89.40
2018-04-07T02:25:49.661Z,89.50
2018-04-07T02:28:17.125Z,90.20
2018-04-07T02:30:44.582Z,90.60
2018-04-07T02:33:12.061Z,90.70
2018-04-07T02:35:39.498Z,90.70
2018-04-07T02:38:06.936Z,90.90
2018-04-07T02:40:34.401Z,90.70
2018-04-07T02:43:01.864Z,90.90
2018-04-07T02:45:29.306Z,90.90
2018-04-07T02:47:56.743Z,91.10
2018-04-07T02:50:24.217Z,90.90
2018-04-07T02:52:51.644Z,91.40
2018-04-07T02:55:19.108Z,90.60
2018-04-07T02:57:46.556Z,90.20
2018-04-07T03:00:14.022Z,90.00
2018-04-07T03:02:41.483Z,90.60
2018-04-07T03:05:08.932Z,90.80
2018-04-07T03:07:36.386Z,91.10
2018-04-07T03:10:03.843Z,91.20
2018-04-07T03:12:31.299Z,91.10
2018-04-07T03:14:58.765Z,91.20
2018-04-07T03:17:26.946Z,91.40
2018-04-07T03:19:54.420Z,91.40
2018-04-07T03:22:21.871Z,91.10
2018-04-07T03:24:49.315Z,90.50
2018-04-07T03:27:17.536Z,90.00
2018-04-07T03:29:44.984Z,90.00
2018-04-07T03:32:12.422Z,90.60
2018-04-07T03:34:40.655Z,90.00
2018-04-07T03:37:08.099Z,90.00
2018-04-07T03:39:35.536Z,89.40
2018-04-07T03:42:03.010Z,89.30
2018-04-07T03:44:30.441Z,90.10
2018-04-07T03:46:58.664Z,90.90
2018-04-07T03:49:26.110Z,90.80
2018-04-07T03:51:53.558Z,90.90
2018-04-07T03:54:20.994Z,90.50
2018-04-07T03:56:48.452Z,90.60
2018-04-07T03:59:15.898Z,91.10
2018-04-07T04:01:43.355Z,91.30
2018-04-07T04:04:10.822Z,91.60
2018-04-07T04:06:38.278Z,91.90
2018-04-07T04:09:05.708Z,91.70
2018-04-07T04:11:33.159Z,91.60
2018-04-07T04:14:00.590Z,92.00
2018-04-07T04:16:28.812Z,91.70
2018-04-07T04:18:56.250Z,92.00
2018-04-07T04:21:24.473Z,91.90
2018-04-07T04:23:51.917Z,91.80
2018-04-07T04:26:19.377Z,91.90
2018-04-07T04:28:46.802Z,92.00
2018-04-07T04:31:15.024Z,91.80
2018-04-07T04:33:42.456Z,91.70
2018-04-07T04:36:10.680Z,92.10
2018-04-07T04:38:38.127Z,92.10
2018-04-07T04:41:05.567Z,92.30
2018-04-07T04:43:33.018Z,92.40
2018-04-07T04:46:01.221Z,92.40
2018-04-07T04:48:28.684Z,92.40
2018-04-07T04:50:56.124Z,92.50
2018-04-07T04:53:24.350Z,92.60
2018-04-07T04:55:51.791Z,92.60
2018-04-07T04:58:19.253Z,92.70
2018-04-07T05:00:46.696Z,92.70
2018-04-07T05:03:14.897Z,92.60
2018-04-07T05:05:43.103Z,92.10
2018-04-07T05:08:10.564Z,92.10
2018-04-07T05:10:38.032Z,92.10
2018-04-07T05:13:05.496Z,92.50
2018-04-07T05:15:32.938Z,92.40
2018-04-07T05:18:00.387Z,91.70
2018-04-07T05:20:27.827Z,91.50
2018-04-07T05:22:55.281Z,91.90
2018-04-07T05:25:23.486Z,91.50
2018-04-07T05:27:50.952Z,91.50
2018-04-07T05:30:18.400Z,91.90
2018-04-07T05:32:45.853Z,92.40
2018-04-07T05:35:13.322Z,92.30
2018-04-07T05:37:41.532Z,93.10
2018-04-07T05:40:08.974Z,93.10
2018-04-07T05:42:36.440Z,93.10
2018-04-07T05:45:03.903Z,92.90
2018-04-07T05:47:31.357Z,92.90
2018-04-07T05:49:58.800Z,93.10
2018-04-07T05:52:27.007Z,92.70
2018-04-07T05:54:54.458Z,92.70
2018-04-07T05:57:21.920Z,92.10
2018-04-07T05:59:49.378Z,92.30
2018-04-07T06:02:16.832Z,92.50
2018-04-07T06:04:45.070Z,92.70
2018-04-07T06:07:12.502Z,92.70
2018-04-07T06:09:39.944Z,92.70
2018-04-07T06:12:07.381Z,91.90
2018-04-07T06:14:35.609Z,92.10
2018-04-07T06:17:03.060Z,92.10
2018-04-07T06:19:30.518Z,91.60
2018-04-07T06:21:57.949Z,91.80
2018-04-07T06:24:25.424Z,91.80
2018-04-07T06:26:52.851Z,91.90
2018-04-07T06:29:20.301Z,91.90
2018-04-07T06:31:47.738Z,91.80
2018-04-07T06:34:15.219Z,91.80
2018-04-07T06:36:42.662Z,91.70
2018-04-07T06:39:10.329Z,91.60
2018-04-07T06:41:37.787Z,91.30
2018-04-07T06:44:05.262Z,91.10
2018-04-07T06:46:32.724Z,90.80
2018-04-07T06:49:00.174Z,90.80
2018-04-07T06:51:27.614Z,91.30
2018-04-07T06:53:55.841Z,91.20
2018-04-07T06:56:23.283Z,91.20
2018-04-07T06:58:50.759Z,90.50
2018-04-07T07:01:18.202Z,91.20
2018-04-07T07:03:45.640Z,91.70
2018-04-07T07:06:13.846Z,91.00
2018-04-07T07:08:41.287Z,91.00
2018-04-07T07:11:08.750Z,91.10
2018-04-07T07:13:36.958Z,91.20
2018-04-07T07:16:04.413Z,91.20
2018-04-07T07:18:31.857Z,91.10
2018-04-07T07:20:59.310Z,90.80
2018-04-07T07:23:27.523Z,90.40
2018-04-07T07:25:54.963Z,90.40
2018-04-07T07:28:22.433Z,90.60
2018-04-07T07:30:49.866Z,91.00
2018-04-07T07:33:18.066Z,90.60
2018-04-07T07:35:45.512Z,90.60
2018-04-07T07:38:19.682Z,90.70
2018-04-07T07:40:47.124Z,90.70
2018-04-07T07:43:14.570Z,90.80
2018-04-07T07:45:42.018Z,90.80
2018-04-07T07:48:10.316Z,90.80
2018-04-07T07:50:37.779Z,90.80
2018-04-07T07:53:05.224Z,90.50
2018-04-07T07:55:33.443Z,90.40
2018-04-07T07:58:00.882Z,90.40
2018-04-07T08:00:28.329Z,90.30
2018-04-07T08:02:56.532Z,90.10
2018-04-07T08:05:24.008Z,90.10
2018-04-07T08:07:51.432Z,90.10
2018-04-07T08:10:19.648Z,90.20
2018-04-07T08:12:47.095Z,90.20
2018-04-07T08:15:14.536Z,90.30
2018-04-07T08:17:42.748Z,90.20
2018-04-07T08:20:10.189Z,90.10
2018-04-07T08:22:37.635Z,90.00
2018-04-07T08:25:05.848Z,89.50
2018-04-07T08:27:33.303Z,89.50
2018-04-07T08:30:00.744Z,89.30
2018-04-07T08:32:28.956Z,89.70
2018-04-07T08:34:56.408Z,89.70
2018-04-07T08:37:23.865Z,88.90
2018-04-07T08:39:51.342Z,88.20
2018-04-07T08:42:18.795Z,88.40
2018-04-07T08:44:46.244Z,88.50
2018-04-07T08:47:13.709Z,87.80
2018-04-07T08:49:41.918Z,87.80
2018-04-07T08:52:09.378Z,87.80
2018-04-07T08:54:36.828Z,86.80
2018-04-07T08:57:04.299Z,86.70
2018-04-07T08:59:31.762Z,86.70
2018-04-07T09:01:59.211Z,86.90
2018-04-07T09:04:26.648Z,87.60
2018-04-07T09:06:54.880Z,86.30
2018-04-07T09:09:22.341Z,86.20
2018-04-07T09:11:49.802Z,86.30
2018-04-07T09:14:17.246Z,86.40
2018-04-07T09:16:44.715Z,85.90
2018-04-07T09:19:12.157Z,85.20
2018-04-07T09:21:39.646Z,84.50
2018-04-07T09:24:07.094Z,84.70
2018-04-07T09:26:34.552Z,85.20
2018-04-07T09:29:01.999Z,84.80
2018-04-07T09:31:29.459Z,83.60
2018-04-07T09:33:56.901Z,83.60
2018-04-07T09:36:25.130Z,82.80
2018-04-07T09:38:52.599Z,82.80
2018-04-07T09:41:20.761Z,82.40
2018-04-07T09:43:48.230Z,82.60
2018-04-07T09:46:15.696Z,82.70
2018-04-07T09:48:43.155Z,81.70
2018-04-07T09:51:10.615Z,80.80
2018-04-07T09:53:38.070Z,81.90
2018-04-07T09:56:05.531Z,82.70
2018-04-07T09:58:32.979Z,84.30
2018-04-07T10:01:01.202Z,80.10
2018-04-07T10:03:28.668Z,80.10
2018-04-07T10:05:56.130Z,79.50
2018-04-07T10:08:23.589Z,79.90
2018-04-07T10:10:51.048Z,78.00
2018-04-07T10:13:18.510Z,78.20
2018-04-07T10:15:45.948Z,78.30
2018-04-07T10:18:13.410Z,77.90
2018-04-07T10:20:40.853Z,78.00
2018-04-07T10:23:09.082Z,76.90
2018-04-07T10:25:36.547Z,76.80
2018-04-07T10:28:04.001Z,75.60
2018-04-07T10:30:31.463Z,76.90
2018-04-07T10:32:58.919Z,76.00
2018-04-07T10:35:26.365Z,76.30
2018-04-07T10:37:53.829Z,76.90
2018-04-07T10:40:21.302Z,77.00
2018-04-07T10:42:48.757Z,76.90
2018-04-07T10:45:16.215Z,76.00
2018-04-07T10:47:43.681Z,77.30
2018-04-07T10:50:11.136Z,76.70
2018-04-07T10:52:38.643Z,76.50
2018-04-07T10:55:06.040Z,76.70
2018-04-07T10:57:34.271Z,77.00
2018-04-07T11:00:01.729Z,77.00
2018-04-07T11:02:29.193Z,73.30
2018-04-07T11:04:56.652Z,72.60
2018-04-07T11:07:24.116Z,72.00
2018-04-07T11:09:51.566Z,73.50
2018-04-07T11:12:19.042Z,72.60
2018-04-07T11:14:46.505Z,72.60
2018-04-07T11:17:13.959Z,70.20
2018-04-07T11:19:41.424Z,71.70
2018-04-07T11:22:08.885Z,71.90
2018-04-07T11:24:36.354Z,70.90
2018-04-07T11:27:03.820Z,72.50
2018-04-07T11:29:31.306Z,71.80
2018-04-07T11:31:58.749Z,70.60
2018-04-07T11:34:27.213Z,71.30
2018-04-07T11:36:54.665Z,69.50
2018-04-07T11:39:22.116Z,68.00
2018-04-07T11:41:49.546Z,69.90
2018-04-07T11:44:17.012Z,70.90
2018-04-07T11:46:45.256Z,72.20
2018-04-07T11:49:12.728Z,72.30
2018-04-07T11:51:40.178Z,71.70
2018-04-07T11:54:07.870Z,70.90
2018-04-07T11:56:35.318Z,70.20
2018-04-07T11:59:02.782Z,66.90
2018-04-07T12:01:30.238Z,68.30
2018-04-07T12:03:57.705Z,67.40
2018-04-07T12:06:25.149Z,68.00
2018-04-07T12:08:52.608Z,68.70
2018-04-07T12:11:20.045Z,68.50
2018-04-07T12:13:47.498Z,65.50
2018-04-07T12:16:15.715Z,68.10
2018-04-07T12:18:43.196Z,68.10
2018-04-07T12:21:10.649Z,65.00
2018-04-07T12:23:38.112Z,64.50
2018-04-07T12:26:05.564Z,68.00
2018-04-07T12:28:33.027Z,69.20
2018-04-07T12:31:00.487Z,68.80
2018-04-07T12:33:27.942Z,67.30
2018-04-07T12:35:55.395Z,64.70
2018-04-07T12:38:22.856Z,66.70
2018-04-07T12:40:50.325Z,65.10
2018-04-07T12:43:17.790Z,65.80
2018-04-07T12:45:45.246Z,66.90
2018-04-07T12:48:13.553Z,65.10
2018-04-07T12:50:41.002Z,64.30
2018-04-07T12:53:08.453Z,64.70
2018-04-07T12:55:35.902Z,63.20
2018-04-07T12:58:03.348Z,61.20
2018-04-07T13:00:31.586Z,62.40
2018-04-07T13:02:59.038Z,62.40
2018-04-07T13:05:27.276Z,59.40
2018-04-07T13:07:55.486Z,59.70
2018-04-07T13:10:22.951Z,59.60
2018-04-07T13:12:50.454Z,59.10
2018-04-07T13:15:17.902Z,59.00
2018-04-07T13:17:45.353Z,59.90
2018-04-07T13:20:12.817Z,60.20
2018-04-07T13:22:40.276Z,59.40
2018-04-07T13:25:07.729Z,61.00
2018-04-07T13:27:35.174Z,58.70
2018-04-07T13:30:02.641Z,56.60
2018-04-07T13:32:30.106Z,56.80
2018-04-07T13:34:57.546Z,57.50
2018-04-07T13:37:25.766Z,59.20
2018-04-07T13:39:53.219Z,59.80
2018-04-07T13:42:21.441Z,55.50
2018-04-07T13:44:48.928Z,55.50
2018-04-07T13:47:17.139Z,56.50
2018-04-07T13:49:44.589Z,56.60
2018-04-07T13:52:12.031Z,55.10
2018-04-07T13:54:40.257Z,52.60
2018-04-07T13:57:07.717Z,52.60
2018-04-07T13:59:35.152Z,53.30
2018-04-07T14:02:02.625Z,51.50
2018-04-07T14:04:30.075Z,53.70
2018-04-07T14:06:57.532Z,54.20
2018-04-07T14:09:24.984Z,53.00
2018-04-07T14:11:53.204Z,50.70
2018-04-07T14:14:20.652Z,50.60
2018-04-07T14:16:48.147Z,49.00
2018-04-07T14:19:15.560Z,44.20
2018-04-07T14:21:43.017Z,48.20
2018-04-07T14:24:11.227Z,46.40
2018-04-07T14:26:38.678Z,46.30
2018-04-07T14:29:06.129Z,49.10
2018-04-07T14:31:33.587Z,48.60
2018-04-07T14:34:01.040Z,43.60
2018-04-07T14:36:29.260Z,45.90
2018-04-07T14:38:56.707Z,45.90
2018-04-07T14:41:26.109Z,48.00
2018-04-07T14:43:53.564Z,47.40
2018-04-07T14:46:21.021Z,46.50
2018-04-07T14:48:48.477Z,48.10
2018-04-07T14:51:16.684Z,44.60
2018-04-07T14:53:44.125Z,44.60
2018-04-07T14:56:11.600Z,46.00
2018-04-07T14:58:39.046Z,45.60
2018-04-07T15:01:07.259Z,44.50
2018-04-07T15:03:34.707Z,44.40
2018-04-07T15:06:02.154Z,45.20
2018-04-07T15:08:29.612Z,45.40
2018-04-07T15:10:57.860Z,42.50
2018-04-07T15:13:25.335Z,42.40
2018-04-07T15:15:52.764Z,43.10
2018-04-07T15:18:20.212Z,44.00
2018-04-07T15:20:47.666Z,42.80
2018-04-07T15:23:15.120Z,44.40
2018-04-07T15:25:42.583Z,40.40
2018-04-07T15:28:10.031Z,44.40
2018-04-07T15:30:37.469Z,39.80
2018-04-07T15:33:05.696Z,42.30
2018-04-07T15:35:33.130Z,42.20
2018-04-07T15:38:01.355Z,40.30
2018-04-07T15:40:28.800Z,40.20
2018-04-07T15:42:56.279Z,41.40
2018-04-07T15:45:23.715Z,43.80
2018-04-07T15:47:51.183Z,41.50
2018-04-07T15:50:18.624Z,42.90
2018-04-07T15:52:46.856Z,43.20
2018-04-07T15:55:14.291Z,43.10
2018-04-07T15:57:41.740Z,42.90
2018-04-07T16:00:09.185Z,43.30
2018-04-07T16:02:37.422Z,44.20
2018-04-07T16:05:04.870Z,44.20
2018-04-07T16:07:32.321Z,45.20
2018-04-07T16:09:59.760Z,45.10
2018-04-07T16:12:27.198Z,46.50
2018-04-07T16:14:55.411Z,45.00
2018-04-07T16:17:22.874Z,45.00
2018-04-07T16:19:50.347Z,44.90
2018-04-07T16:22:18.566Z,45.30
2018-04-07T16:24:46.003Z,45.30
2018-04-07T16:27:13.467Z,45.30
2018-04-07T16:29:40.916Z,45.90
2018-04-07T16:32:08.368Z,47.80
2018-04-07T16:34:35.818Z,45.80
2018-04-07T16:37:03.293Z,43.60
2018-04-07T16:39:30.740Z,45.70
2018-04-07T16:41:58.199Z,45.50
2018-04-07T16:44:25.680Z,45.20
2018-04-07T16:46:53.144Z,44.80
2018-04-07T16:49:20.605Z,44.70
2018-04-07T16:51:48.067Z,44.90
2018-04-07T16:54:15.491Z,45.50
2018-04-07T16:56:43.712Z,45.90
2018-04-07T16:59:11.178Z,46.00
2018-04-07T17:01:38.619Z,46.50
2018-04-07T17:04:06.066Z,46.20
2018-04-07T17:06:34.275Z,46.50
2018-04-07T17:09:01.729Z,46.50
2018-04-07T17:11:29.190Z,46.30
2018-04-07T17:13:56.641Z,46.20
2018-04-07T17:16:24.101Z,47.20
2018-04-07T17:18:52.312Z,45.00
2018-04-07T17:21:19.766Z,45.00
2018-04-07T17:23:47.228Z,45.80
2018-04-07T17:26:15.205Z,46.00
2018-04-07T17:28:42.652Z,46.60
2018-04-07T17:31:10.100Z,47.40
2018-04-07T17:33:38.335Z,48.20
2018-04-07T17:36:05.796Z,48.20
2018-04-07T17:38:33.242Z,48.70
2018-04-07T17:41:01.441Z,50.40
2018-04-07T17:43:28.897Z,50.40
2018-04-07T17:45:56.369Z,51.80
2018-04-07T17:48:23.823Z,52.40
2018-04-07T17:50:51.360Z,52.00
2018-04-07T17:53:18.790Z,52.90
2018-04-07T17:55:46.994Z,53.10
2018-04-07T17:58:14.441Z,53.10
2018-04-07T18:00:42.673Z,52.80
2018-04-07T18:03:10.130Z,52.80
2018-04-07T18:05:37.618Z,51.30
2018-04-07T18:08:05.063Z,50.80
2018-04-07T18:10:32.513Z,54.10
2018-04-07T18:12:59.955Z,53.80
2018-04-07T18:15:27.411Z,53.60
2018-04-07T18:17:54.860Z,56.00
2018-04-07T18:20:23.079Z,54.50
2018-04-07T18:22:50.520Z,54.50
2018-04-07T18:25:17.965Z,55.40
2018-04-07T18:27:45.402Z,58.20
2018-04-07T18:30:12.861Z,58.10
2018-04-07T18:32:40.305Z,59.40
2018-04-07T18:35:07.772Z,61.10
2018-04-07T18:37:35.249Z,61.00
2018-04-07T18:40:02.708Z,61.10
2018-04-07T18:42:30.154Z,58.90
2018-04-07T18:44:57.618Z,61.10
2018-04-07T18:47:25.098Z,61.60
2018-04-07T18:49:52.546Z,62.00
2018-04-07T18:52:20.348Z,63.70
2018-04-07T18:54:48.569Z,64.10
2018-04-07T18:57:16.020Z,64.10
2018-04-07T18:59:43.490Z,64.30
2018-04-07T19:02:10.947Z,64.30
2018-04-07T19:04:39.406Z,63.80
2018-04-07T19:07:07.629Z,65.10
2018-04-07T19:09:35.077Z,65.10
2018-04-07T19:12:02.542Z,64.50
2018-04-07T19:14:30.753Z,63.20
2018-04-07T19:16:58.234Z,63.20
2018-04-07T19:19:25.707Z,63.90
2018-04-07T19:21:53.152Z,65.20
2018-04-07T19:24:21.136Z,65.70
2018-04-07T19:26:49.349Z,65.70
2018-04-07T19:29:16.816Z,65.70
2018-04-07T19:31:44.259Z,65.40
2018-04-07T19:34:11.712Z,64.70
2018-04-07T19:36:39.945Z,67.20
2018-04-07T19:39:07.383Z,67.20
2018-04-07T19:41:34.878Z,67.90
2018-04-07T19:44:02.311Z,68.90
2018-04-07T19:46:29.772Z,69.00
2018-04-07T19:48:57.232Z,69.20
2018-04-07T19:51:24.694Z,69.10
2018-04-07T19:53:52.160Z,68.90
2018-04-07T19:56:19.641Z,69.40
2018-04-07T19:58:47.084Z,70.60
2018-04-07T20:01:14.530Z,70.60
2018-04-07T20:03:41.979Z,71.30
2018-04-07T20:06:10.210Z,71.90
2018-04-07T20:08:37.678Z,71.90
2018-04-07T20:11:05.122Z,72.30
2018-04-07T20:13:32.566Z,73.20
2018-04-07T20:15:59.991Z,73.10
2018-04-07T20:18:27.453Z,74.30
2018-04-07T20:20:54.909Z,73.60
2018-04-07T20:23:22.360Z,75.10
2018-04-07T20:25:49.805Z,74.60
2018-04-07T20:28:17.244Z,75.70
2018-04-07T20:30:44.698Z,75.90
2018-04-07T20:33:12.145Z,75.30
2018-04-07T20:35:39.601Z,76.20
2018-04-07T20:38:07.831Z,76.30
2018-04-07T20:40:35.293Z,77.00
2018-04-07T20:43:02.763Z,76.70
2018-04-07T20:45:30.208Z,76.30
2018-04-07T20:47:57.669Z,75.50
2018-04-07T20:50:25.113Z,75.90
2018-04-07T20:52:52.611Z,75.70
2018-04-07T20:55:20.755Z,76.20
2018-04-07T20:57:48.224Z,76.20
2018-04-07T21:00:15.666Z,77.30
2018-04-07T21:02:43.899Z,77.20
2018-04-07T21:05:12.349Z,77.30
2018-04-07T21:07:39.798Z,77.60
2018-04-07T21:10:07.257Z,76.80
2018-04-07T21:12:35.461Z,78.00
2018-04-07T21:15:02.932Z,78.00
2018-04-07T21:17:30.408Z,78.40
2018-04-07T21:19:57.866Z,77.90
2018-04-07T21:22:25.311Z,77.30
2018-04-07T21:24:52.816Z,78.20
2018-04-07T21:27:20.218Z,77.90
2018-04-07T21:29:47.672Z,78.70
2018-04-07T21:32:15.134Z,78.60
2018-04-07T21:34:43.361Z,79.50
2018-04-07T21:37:10.795Z,79.50
2018-04-07T21:39:38.249Z,80.00
2018-04-07T21:42:05.702Z,79.80
2018-04-07T21:44:33.921Z,79.10
2018-04-07T21:47:01.358Z,79.10
2018-04-07T21:49:28.818Z,79.10
2018-04-07T21:51:56.283Z,78.60
2018-04-07T21:54:23.751Z,78.30
2018-04-07T21:56:51.212Z,78.20
2018-04-07T21:59:18.663Z,77.90
2018-04-07T22:01:46.882Z,78.90
2018-04-07T22:04:14.344Z,78.90
2018-04-07T22:06:41.774Z,79.30
2018-04-07T22:09:09.997Z,80.10
2018-04-07T22:11:37.456Z,80.10
2018-04-07T22:14:04.917Z,80.60
2018-04-07T22:16:32.367Z,81.00
2018-04-07T22:18:59.838Z,81.10
2018-04-07T22:21:27.290Z,81.70
2018-04-07T22:23:54.738Z,82.00
2018-04-07T22:26:22.198Z,82.70
2018-04-07T22:28:49.649Z,82.20
2018-04-07T22:31:17.872Z,83.50
2018-04-07T22:33:45.319Z,83.50
2018-04-07T22:36:12.767Z,83.30
2018-04-07T22:38:40.214Z,83.50
2018-04-07T22:41:08.458Z,83.70
2018-04-07T22:43:35.894Z,83.70
2018-04-07T22:46:03.352Z,82.60
2018-04-07T22:48:30.808Z,83.10
2018-04-07T22:50:58.260Z,83.90
2018-04-07T22:53:25.710Z,85.20
2018-04-07T22:55:54.017Z,84.50
2018-04-07T22:58:21.470Z,84.50
2018-04-07T23:00:48.942Z,84.60
2018-04-07T23:03:16.405Z,85.10
2018-04-07T23:05:43.880Z,84.70
2018-04-07T23:08:11.344Z,84.80
2018-04-07T23:10:38.814Z,84.10
2018-04-07T23:13:06.267Z,84.30
2018-04-07T23:15:33.727Z,85.00
2018-04-07T23:18:01.179Z,85.70
2018-04-07T23:20:28.630Z,86.20
2018-04-07T23:22:56.080Z,86.00
2018-04-07T23:25:24.315Z,86.10
2018-04-07T23:27:51.758Z,86.10
2018-04-07T23:30:19.200Z,87.10
2018-04-07T23:32:46.660Z,86.40
2018-04-07T23:35:14.121Z,85.90
2018-04-07T23:37:41.582Z,85.70
2018-04-07T23:40:09.022Z,86.50
2018-04-07T23:42:37.243Z,86.30
2018-04-07T23:45:04.683Z,86.20
2018-04-07T23:47:32.145Z,87.30
2018-04-07T23:50:00.337Z,87.80
2018-04-07T23:52:27.792Z,87.70
2018-04-07T23:54:55.234Z,87.60
2018-04-07T23:57:23.451Z,87.80
2018-04-07T23:59:50.905Z,87.80
